메인 페이지
METAR-TAF:

METAR-TAF

공항 :

안토파가스타, 칠레

위도: 23-26S, 경도: 070-26W, 고도: 135m

현재 날씨관측

예보는 49분 전, 02:00시(UTC)에 발표되었습니다.
7kt
온도 18°C
습도 73%
기압 1015 hPa
시정 10km 이상
고도 1600ft 상공 구름 조금
고도 3300ft 상공 구름 많음

METAR: SCFA 130200Z 17007KT 9999 FEW016 BKN033 18/13 Q1015 NOSIG

시각: 23:49 (02:49 UTC)

예보

예보는 4 시간 19분 전, 22:30시(UTC)에 발표되었습니다.
예보 대상 시간: 13일 00시부터 13일 24시까지 (UTC)
남남서8kt
시정 10km 이상
고도 2500ft 상공 구름 많음
전환 중
13일 02시부터 13일 04시까지 (UTC)
남남동4kt
전환 중
13일 09시부터 13일 11시까지 (UTC)
4kt
고도 2500ft 상공 구름 조금
전환 중
13일 15시부터 13일 17시까지 (UTC)
남남서15kt
전환 중
13일 23시부터 13일 24시까지 (UTC)
8kt
고도 3000ft 상공 구름 많음

TAF: SCFA 122230Z 1300/1324 21008KT 9999 BKN025 TN15/1308Z TX21/ 1316Z BECMG 1302/1304 16004KT BECMG 1309/1311 01004KT FEW025 BECMG 1315/1317 21015KT BECMG 1323/1324 17008KT BKN030

4,000개 이상의 공항 관측 자료 및 예보 (METAR 및 TAF 보고).

지도상에서 검색 가능한 기상관측소가 노란 점과 빨간 점으로 표시되어 있습니다.

기상관측소 명을 보려면 표시 위로 마우스를 이동하세요.

날씨 관측과 예보를 보려면 클릭하세요.

지도 변경 : 확대하려면 엑스 표시가 있는 녹색 버튼, 축소하려면 빼기 표시가 있는 녹색 버튼, 다음 페이지의 지도를 보려면 녹색 화살표를 클릭하세요.


METAR-TAF: